sensor_id;sensor_type;location;lat;lon;timestamp;P1;durP1;ratioP1;P2;durP2;ratioP2
151;SDS011;68;48.792;9.164;2023-03-01T00:02:18;39.03;;;22.58;;
151;SDS011;68;48.792;9.164;2023-03-01T00:04:45;36.13;;;21.88;;
151;SDS011;68;48.792;9.164;2023-03-01T00:07:12;36.22;;;22.55;;
151;SDS011;68;48.792;9.164;2023-03-01T00:09:39;37.05;;;21.90;;
151;SDS011;68;48.792;9.164;2023-03-01T00:12:07;37.30;;;22.02;;
151;SDS011;68;48.792;9.164;2023-03-01T00:14:34;37.55;;;22.83;;
151;SDS011;68;48.792;9.164;2023-03-01T00:17:02;38.17;;;22.77;;
151;SDS011;68;48.792;9.164;2023-03-01T00:19:28;35.70;;;22.27;;
151;SDS011;68;48.792;9.164;2023-03-01T00:21:57;38.40;;;22.83;;
151;SDS011;68;48.792;9.164;2023-03-01T00:24:24;34.55;;;21.95;;
151;SDS011;68;48.792;9.164;2023-03-01T00:26:52;38.35;;;23.13;;
151;SDS011;68;48.792;9.164;2023-03-01T00:29:21;37.45;;;23.27;;
151;SDS011;68;48.792;9.164;2023-03-01T00:31:48;37.42;;;22.15;;
151;SDS011;68;48.792;9.164;2023-03-01T00:34:15;36.92;;;23.08;;
151;SDS011;68;48.792;9.164;2023-03-01T00:36:42;35.53;;;22.15;;
151;SDS011;68;48.792;9.164;2023-03-01T00:39:10;38.15;;;22.90;;
151;SDS011;68;48.792;9.164;2023-03-01T00:41:38;34.35;;;21.42;;
151;SDS011;68;48.792;9.164;2023-03-01T00:44:05;36.95;;;22.35;;
151;SDS011;68;48.792;9.164;2023-03-01T00:46:33;36.58;;;21.85;;
151;SDS011;68;48.792;9.164;2023-03-01T00:49:00;36.47;;;21.27;;
151;SDS011;68;48.792;9.164;2023-03-01T00:51:27;36.47;;;23.38;;
151;SDS011;68;48.792;9.164;2023-03-01T00:53:55;38.53;;;23.17;;
151;SDS011;68;48.792;9.164;2023-03-01T00:56:23;34.65;;;22.17;;
151;SDS011;68;48.792;9.164;2023-03-01T00:58:50;35.20;;;22.05;;
151;SDS011;68;48.792;9.164;2023-03-01T01:01:18;37.17;;;22.13;;
151;SDS011;68;48.792;9.164;2023-03-01T01:03:47;34.90;;;22.50;;
151;SDS011;68;48.792;9.164;2023-03-01T01:06:16;37.45;;;22.42;;
151;SDS011;68;48.792;9.164;2023-03-01T01:08:44;33.42;;;21.70;;
151;SDS011;68;48.792;9.164;2023-03-01T01:11:11;42.58;;;20.90;;
151;SDS011;68;48.792;9.164;2023-03-01T01:13:39;36.35;;;22.95;;
151;SDS011;68;48.792;9.164;2023-03-01T01:16:06;36.53;;;22.45;;
151;SDS011;68;48.792;9.164;2023-03-01T01:18:33;37.97;;;23.15;;
151;SDS011;68;48.792;9.164;2023-03-01T01:21:05;36.90;;;22.20;;
151;SDS011;68;48.792;9.164;2023-03-01T01:23:34;34.83;;;21.38;;
151;SDS011;68;48.792;9.164;2023-03-01T01:26:05;36.58;;;22.45;;
151;SDS011;68;48.792;9.164;2023-03-01T01:28:32;39.58;;;23.30;;
151;SDS011;68;48.792;9.164;2023-03-01T01:31:00;40.47;;;22.15;;
151;SDS011;68;48.792;9.164;2023-03-01T01:33:26;34.40;;;22.15;;
151;SDS011;68;48.792;9.164;2023-03-01T01:35:53;35.83;;;22.77;;
151;SDS011;68;48.792;9.164;2023-03-01T01:38:21;37.70;;;22.42;;
151;SDS011;68;48.792;9.164;2023-03-01T01:40:49;38.65;;;22.48;;
151;SDS011;68;48.792;9.164;2023-03-01T01:43:18;37.58;;;23.33;;
151;SDS011;68;48.792;9.164;2023-03-01T01:45:47;35.20;;;22.02;;
151;SDS011;68;48.792;9.164;2023-03-01T01:48:14;38.33;;;22.83;;
151;SDS011;68;48.792;9.164;2023-03-01T01:50:45;41.13;;;24.55;;
151;SDS011;68;48.792;9.164;2023-03-01T01:53:18;33.35;;;21.98;;
151;SDS011;68;48.792;9.164;2023-03-01T01:55:47;38.58;;;23.17;;
151;SDS011;68;48.792;9.164;2023-03-01T01:58:18;39.65;;;23.23;;
151;SDS011;68;48.792;9.164;2023-03-01T02:00:46;41.60;;;23.75;;
151;SDS011;68;48.792;9.164;2023-03-01T02:03:14;36.58;;;22.65;;
151;SDS011;68;48.792;9.164;2023-03-01T02:05:47;39.08;;;23.23;;
151;SDS011;68;48.792;9.164;2023-03-01T02:08:18;38.47;;;23.25;;
151;SDS011;68;48.792;9.164;2023-03-01T02:10:49;37.85;;;23.50;;
151;SDS011;68;48.792;9.164;2023-03-01T02:13:17;40.72;;;23.25;;
151;SDS011;68;48.792;9.164;2023-03-01T02:15:44;40.47;;;24.23;;
151;SDS011;68;48.792;9.164;2023-03-01T02:18:12;40.35;;;24.30;;
151;SDS011;68;48.792;9.164;2023-03-01T02:20:44;36.38;;;22.60;;
151;SDS011;68;48.792;9.164;2023-03-01T02:23:18;43.35;;;23.33;;
151;SDS011;68;48.792;9.164;2023-03-01T02:25:48;39.00;;;23.73;;
151;SDS011;68;48.792;9.164;2023-03-01T02:28:27;37.55;;;23.17;;
151;SDS011;68;48.792;9.164;2023-03-01T02:30:57;38.05;;;24.38;;
151;SDS011;68;48.792;9.164;2023-03-01T02:33:53;35.22;;;22.75;;
151;SDS011;68;48.792;9.164;2023-03-01T02:36:21;40.88;;;25.75;;
151;SDS011;68;48.792;9.164;2023-03-01T02:38:51;38.95;;;23.77;;
151;SDS011;68;48.792;9.164;2023-03-01T02:41:21;39.90;;;23.55;;
151;SDS011;68;48.792;9.164;2023-03-01T02:43:52;39.58;;;23.50;;
151;SDS011;68;48.792;9.164;2023-03-01T02:46:20;38.58;;;23.50;;
151;SDS011;68;48.792;9.164;2023-03-01T02:48:48;40.88;;;24.17;;
151;SDS011;68;48.792;9.164;2023-03-01T02:51:20;38.95;;;22.88;;
151;SDS011;68;48.792;9.164;2023-03-01T02:54:05;37.22;;;22.67;;
151;SDS011;68;48.792;9.164;2023-03-01T02:56:37;40.30;;;23.70;;
151;SDS011;68;48.792;9.164;2023-03-01T02:59:05;40.00;;;24.45;;
151;SDS011;68;48.792;9.164;2023-03-01T03:01:33;39.47;;;23.83;;
151;SDS011;68;48.792;9.164;2023-03-01T03:04:03;43.30;;;25.58;;
151;SDS011;68;48.792;9.164;2023-03-01T03:06:31;40.53;;;24.52;;
151;SDS011;68;48.792;9.164;2023-03-01T03:08:58;42.58;;;24.05;;
151;SDS011;68;48.792;9.164;2023-03-01T03:11:25;40.58;;;24.80;;
151;SDS011;68;48.792;9.164;2023-03-01T03:13:52;41.08;;;23.85;;
151;SDS011;68;48.792;9.164;2023-03-01T03:16:20;41.53;;;24.77;;
151;SDS011;68;48.792;9.164;2023-03-01T03:18:47;38.22;;;23.95;;
151;SDS011;68;48.792;9.164;2023-03-01T03:21:15;39.10;;;24.60;;
151;SDS011;68;48.792;9.164;2023-03-01T03:23:42;42.13;;;24.25;;
151;SDS011;68;48.792;9.164;2023-03-01T03:26:09;40.85;;;24.75;;
151;SDS011;68;48.792;9.164;2023-03-01T03:28:38;51.38;;;25.40;;
151;SDS011;68;48.792;9.164;2023-03-01T03:31:05;38.05;;;23.42;;
151;SDS011;68;48.792;9.164;2023-03-01T03:33:34;39.90;;;24.02;;
151;SDS011;68;48.792;9.164;2023-03-01T03:36:01;36.65;;;23.38;;
151;SDS011;68;48.792;9.164;2023-03-01T03:38:28;39.20;;;24.55;;
151;SDS011;68;48.792;9.164;2023-03-01T03:40:59;41.13;;;24.60;;
151;SDS011;68;48.792;9.164;2023-03-01T03:43:28;38.88;;;24.08;;
151;SDS011;68;48.792;9.164;2023-03-01T03:45:56;38.88;;;24.65;;
151;SDS011;68;48.792;9.164;2023-03-01T03:48:24;36.92;;;23.67;;
151;SDS011;68;48.792;9.164;2023-03-01T03:50:53;42.60;;;25.50;;
151;SDS011;68;48.792;9.164;2023-03-01T03:53:21;42.78;;;23.83;;
151;SDS011;68;48.792;9.164;2023-03-01T03:55:49;37.22;;;23.42;;
151;SDS011;68;48.792;9.164;2023-03-01T03:58:17;44.97;;;24.30;;
151;SDS011;68;48.792;9.164;2023-03-01T04:00:45;40.83;;;24.95;;
151;SDS011;68;48.792;9.164;2023-03-01T04:03:13;41.35;;;24.42;;
151;SDS011;68;48.792;9.164;2023-03-01T04:05:41;40.38;;;24.65;;
151;SDS011;68;48.792;9.164;2023-03-01T04:08:10;40.33;;;24.95;;
151;SDS011;68;48.792;9.164;2023-03-01T04:10:38;37.20;;;23.40;;
151;SDS011;68;48.792;9.164;2023-03-01T04:13:08;41.00;;;24.73;;
151;SDS011;68;48.792;9.164;2023-03-01T04:15:37;43.53;;;25.60;;
151;SDS011;68;48.792;9.164;2023-03-01T04:18:04;38.97;;;24.48;;
151;SDS011;68;48.792;9.164;2023-03-01T04:20:32;40.72;;;24.58;;
151;SDS011;68;48.792;9.164;2023-03-01T04:23:03;46.10;;;25.55;;
151;SDS011;68;48.792;9.164;2023-03-01T04:25:37;41.45;;;24.98;;
151;SDS011;68;48.792;9.164;2023-03-01T04:28:05;40.30;;;24.95;;
151;SDS011;68;48.792;9.164;2023-03-01T04:30:32;40.25;;;24.17;;
151;SDS011;68;48.792;9.164;2023-03-01T04:33:01;39.88;;;25.02;;
151;SDS011;68;48.792;9.164;2023-03-01T04:35:29;39.50;;;24.92;;
151;SDS011;68;48.792;9.164;2023-03-01T04:37:56;43.30;;;25.55;;
151;SDS011;68;48.792;9.164;2023-03-01T04:40:23;40.47;;;24.23;;
151;SDS011;68;48.792;9.164;2023-03-01T04:42:51;40.22;;;25.45;;
151;SDS011;68;48.792;9.164;2023-03-01T04:45:18;45.00;;;25.52;;
151;SDS011;68;48.792;9.164;2023-03-01T04:47:45;40.42;;;24.60;;
151;SDS011;68;48.792;9.164;2023-03-01T04:50:13;48.60;;;27.65;;
151;SDS011;68;48.792;9.164;2023-03-01T04:52:41;41.55;;;24.88;;
151;SDS011;68;48.792;9.164;2023-03-01T04:55:09;42.97;;;25.67;;
151;SDS011;68;48.792;9.164;2023-03-01T04:57:36;44.25;;;26.10;;
151;SDS011;68;48.792;9.164;2023-03-01T05:00:05;42.53;;;25.27;;
151;SDS011;68;48.792;9.164;2023-03-01T05:02:45;45.03;;;26.42;;
151;SDS011;68;48.792;9.164;2023-03-01T05:05:13;41.50;;;25.20;;
151;SDS011;68;48.792;9.164;2023-03-01T05:07:40;42.97;;;24.90;;
151;SDS011;68;48.792;9.164;2023-03-01T05:10:08;43.58;;;25.60;;
151;SDS011;68;48.792;9.164;2023-03-01T05:12:35;43.53;;;25.08;;
151;SDS011;68;48.792;9.164;2023-03-01T05:15:05;38.42;;;24.73;;
151;SDS011;68;48.792;9.164;2023-03-01T05:17:32;42.22;;;25.13;;
151;SDS011;68;48.792;9.164;2023-03-01T05:20:00;38.72;;;24.98;;
151;SDS011;68;48.792;9.164;2023-03-01T05:22:30;38.53;;;23.20;;
151;SDS011;68;48.792;9.164;2023-03-01T05:24:57;40.97;;;25.17;;
151;SDS011;68;48.792;9.164;2023-03-01T05:27:24;41.42;;;24.73;;
151;SDS011;68;48.792;9.164;2023-03-01T05:29:51;42.33;;;25.10;;
151;SDS011;68;48.792;9.164;2023-03-01T05:32:19;42.40;;;25.40;;
151;SDS011;68;48.792;9.164;2023-03-01T05:34:45;43.65;;;25.10;;
151;SDS011;68;48.792;9.164;2023-03-01T05:37:12;41.97;;;24.98;;
151;SDS011;68;48.792;9.164;2023-03-01T05:39:39;40.53;;;24.02;;
151;SDS011;68;48.792;9.164;2023-03-01T05:42:09;41.42;;;24.70;;
151;SDS011;68;48.792;9.164;2023-03-01T05:44:37;47.63;;;25.77;;
151;SDS011;68;48.792;9.164;2023-03-01T05:47:04;42.90;;;25.15;;
151;SDS011;68;48.792;9.164;2023-03-01T05:49:32;45.17;;;25.40;;
151;SDS011;68;48.792;9.164;2023-03-01T05:51:59;42.00;;;25.83;;
151;SDS011;68;48.792;9.164;2023-03-01T05:54:26;40.40;;;24.98;;
151;SDS011;68;48.792;9.164;2023-03-01T05:56:53;41.20;;;25.23;;
151;SDS011;68;48.792;9.164;2023-03-01T05:59:19;45.38;;;25.25;;
151;SDS011;68;48.792;9.164;2023-03-01T06:01:46;44.13;;;25.60;;
151;SDS011;68;48.792;9.164;2023-03-01T06:04:13;40.00;;;25.02;;
151;SDS011;68;48.792;9.164;2023-03-01T06:06:41;40.38;;;25.35;;
151;SDS011;68;48.792;9.164;2023-03-01T06:09:08;44.65;;;26.20;;
151;SDS011;68;48.792;9.164;2023-03-01T06:11:35;41.38;;;25.13;;
151;SDS011;68;48.792;9.164;2023-03-01T06:14:02;43.00;;;25.98;;
151;SDS011;68;48.792;9.164;2023-03-01T06:16:31;40.67;;;24.77;;
151;SDS011;68;48.792;9.164;2023-03-01T06:18:58;44.28;;;26.58;;
151;SDS011;68;48.792;9.164;2023-03-01T06:21:24;41.55;;;24.80;;
151;SDS011;68;48.792;9.164;2023-03-01T06:23:53;42.58;;;25.75;;
151;SDS011;68;48.792;9.164;2023-03-01T06:26:19;44.80;;;26.38;;
151;SDS011;68;48.792;9.164;2023-03-01T06:28:46;42.17;;;25.88;;
151;SDS011;68;48.792;9.164;2023-03-01T06:31:13;46.63;;;25.75;;
151;SDS011;68;48.792;9.164;2023-03-01T06:33:40;46.95;;;27.60;;
151;SDS011;68;48.792;9.164;2023-03-01T06:36:07;44.92;;;26.50;;
151;SDS011;68;48.792;9.164;2023-03-01T06:38:35;48.78;;;25.85;;
151;SDS011;68;48.792;9.164;2023-03-01T06:41:03;45.88;;;26.92;;
151;SDS011;68;48.792;9.164;2023-03-01T06:43:30;47.58;;;27.13;;
151;SDS011;68;48.792;9.164;2023-03-01T06:45:57;45.88;;;26.92;;
151;SDS011;68;48.792;9.164;2023-03-01T06:48:23;45.05;;;25.88;;
151;SDS011;68;48.792;9.164;2023-03-01T06:50:50;45.50;;;26.48;;
151;SDS011;68;48.792;9.164;2023-03-01T06:53:17;42.13;;;25.00;;
151;SDS011;68;48.792;9.164;2023-03-01T06:55:44;39.92;;;24.50;;
151;SDS011;68;48.792;9.164;2023-03-01T06:58:12;44.40;;;25.95;;
151;SDS011;68;48.792;9.164;2023-03-01T07:00:38;46.22;;;26.35;;
151;SDS011;68;48.792;9.164;2023-03-01T07:03:05;44.40;;;26.30;;
151;SDS011;68;48.792;9.164;2023-03-01T07:05:33;45.22;;;25.55;;
151;SDS011;68;48.792;9.164;2023-03-01T07:08:00;41.97;;;25.20;;
151;SDS011;68;48.792;9.164;2023-03-01T07:10:27;45.28;;;27.40;;
151;SDS011;68;48.792;9.164;2023-03-01T07:12:54;43.72;;;26.73;;
151;SDS011;68;48.792;9.164;2023-03-01T07:15:23;44.42;;;27.05;;
151;SDS011;68;48.792;9.164;2023-03-01T07:17:50;46.20;;;27.40;;
151;SDS011;68;48.792;9.164;2023-03-01T07:20:17;51.00;;;28.17;;
151;SDS011;68;48.792;9.164;2023-03-01T07:22:47;44.92;;;26.75;;
151;SDS011;68;48.792;9.164;2023-03-01T07:25:14;51.00;;;27.30;;
151;SDS011;68;48.792;9.164;2023-03-01T07:27:41;43.00;;;26.10;;
151;SDS011;68;48.792;9.164;2023-03-01T07:30:08;47.33;;;28.27;;
151;SDS011;68;48.792;9.164;2023-03-01T07:32:37;50.75;;;29.05;;
151;SDS011;68;48.792;9.164;2023-03-01T07:35:04;45.20;;;27.02;;
151;SDS011;68;48.792;9.164;2023-03-01T07:37:31;50.08;;;28.42;;
151;SDS011;68;48.792;9.164;2023-03-01T07:39:58;43.72;;;26.73;;
151;SDS011;68;48.792;9.164;2023-03-01T07:42:25;47.58;;;28.67;;
151;SDS011;68;48.792;9.164;2023-03-01T07:44:51;41.45;;;26.48;;
151;SDS011;68;48.792;9.164;2023-03-01T07:47:18;45.60;;;26.35;;
151;SDS011;68;48.792;9.164;2023-03-01T07:49:46;47.63;;;27.45;;
151;SDS011;68;48.792;9.164;2023-03-01T07:52:13;46.65;;;27.08;;
151;SDS011;68;48.792;9.164;2023-03-01T07:54:42;44.97;;;26.88;;
151;SDS011;68;48.792;9.164;2023-03-01T07:57:10;43.22;;;26.80;;
151;SDS011;68;48.792;9.164;2023-03-01T07:59:37;49.65;;;26.90;;
151;SDS011;68;48.792;9.164;2023-03-01T08:02:03;46.35;;;26.95;;
151;SDS011;68;48.792;9.164;2023-03-01T08:04:31;40.67;;;25.23;;
151;SDS011;68;48.792;9.164;2023-03-01T08:06:59;43.30;;;26.05;;
151;SDS011;68;48.792;9.164;2023-03-01T08:09:26;46.25;;;26.45;;
151;SDS011;68;48.792;9.164;2023-03-01T08:11:52;43.83;;;26.65;;
151;SDS011;68;48.792;9.164;2023-03-01T08:14:20;45.40;;;26.70;;
151;SDS011;68;48.792;9.164;2023-03-01T08:16:48;47.67;;;26.70;;
151;SDS011;68;48.792;9.164;2023-03-01T08:19:15;45.15;;;26.55;;
151;SDS011;68;48.792;9.164;2023-03-01T08:21:42;42.50;;;27.30;;
151;SDS011;68;48.792;9.164;2023-03-01T08:24:10;45.25;;;27.55;;
151;SDS011;68;48.792;9.164;2023-03-01T08:26:37;46.33;;;26.98;;
151;SDS011;68;48.792;9.164;2023-03-01T08:29:04;44.17;;;26.85;;
151;SDS011;68;48.792;9.164;2023-03-01T08:31:32;49.67;;;27.60;;
151;SDS011;68;48.792;9.164;2023-03-01T08:34:02;44.90;;;28.13;;
151;SDS011;68;48.792;9.164;2023-03-01T08:36:31;48.50;;;28.55;;
151;SDS011;68;48.792;9.164;2023-03-01T08:39:01;45.92;;;26.73;;
151;SDS011;68;48.792;9.164;2023-03-01T08:41:30;41.65;;;25.63;;
151;SDS011;68;48.792;9.164;2023-03-01T08:43:57;43.30;;;26.48;;
151;SDS011;68;48.792;9.164;2023-03-01T08:46:24;45.70;;;25.98;;
151;SDS011;68;48.792;9.164;2023-03-01T08:48:52;48.42;;;27.92;;
151;SDS011;68;48.792;9.164;2023-03-01T08:51:19;46.42;;;26.67;;
151;SDS011;68;48.792;9.164;2023-03-01T08:53:47;42.85;;;26.52;;
151;SDS011;68;48.792;9.164;2023-03-01T08:56:14;45.40;;;27.33;;
151;SDS011;68;48.792;9.164;2023-03-01T08:58:44;43.60;;;26.77;;
151;SDS011;68;48.792;9.164;2023-03-01T09:01:13;49.85;;;27.80;;
151;SDS011;68;48.792;9.164;2023-03-01T09:03:40;48.60;;;27.63;;
151;SDS011;68;48.792;9.164;2023-03-01T09:06:08;42.95;;;26.98;;
151;SDS011;68;48.792;9.164;2023-03-01T09:08:35;45.65;;;26.17;;
151;SDS011;68;48.792;9.164;2023-03-01T09:11:02;44.47;;;26.90;;
151;SDS011;68;48.792;9.164;2023-03-01T09:13:29;45.40;;;26.45;;
151;SDS011;68;48.792;9.164;2023-03-01T09:15:58;44.03;;;27.42;;
151;SDS011;68;48.792;9.164;2023-03-01T09:18:26;42.38;;;25.60;;
151;SDS011;68;48.792;9.164;2023-03-01T09:20:53;49.45;;;28.20;;
151;SDS011;68;48.792;9.164;2023-03-01T09:23:26;53.47;;;28.25;;
151;SDS011;68;48.792;9.164;2023-03-01T09:25:53;46.83;;;27.23;;
151;SDS011;68;48.792;9.164;2023-03-01T09:28:19;46.90;;;26.98;;
151;SDS011;68;48.792;9.164;2023-03-01T09:30:48;48.25;;;26.35;;
151;SDS011;68;48.792;9.164;2023-03-01T09:33:16;44.47;;;26.63;;
151;SDS011;68;48.792;9.164;2023-03-01T09:35:43;42.08;;;25.52;;
151;SDS011;68;48.792;9.164;2023-03-01T09:38:11;41.70;;;25.45;;
151;SDS011;68;48.792;9.164;2023-03-01T09:40:41;47.78;;;26.33;;
151;SDS011;68;48.792;9.164;2023-03-01T09:43:13;46.92;;;25.60;;
151;SDS011;68;48.792;9.164;2023-03-01T09:45:47;41.88;;;25.92;;
151;SDS011;68;48.792;9.164;2023-03-01T09:48:18;45.10;;;27.15;;
151;SDS011;68;48.792;9.164;2023-03-01T09:50:48;49.75;;;26.58;;
151;SDS011;68;48.792;9.164;2023-03-01T09:53:16;42.70;;;26.80;;
151;SDS011;68;48.792;9.164;2023-03-01T09:55:47;46.80;;;27.42;;
151;SDS011;68;48.792;9.164;2023-03-01T10:01:09;43.22;;;25.15;;
151;SDS011;68;48.792;9.164;2023-03-01T10:03:53;44.20;;;25.15;;
151;SDS011;68;48.792;9.164;2023-03-01T10:06:46;42.20;;;26.05;;
151;SDS011;68;48.792;9.164;2023-03-01T10:09:21;46.78;;;26.55;;
151;SDS011;68;48.792;9.164;2023-03-01T10:11:49;41.90;;;25.65;;
151;SDS011;68;48.792;9.164;2023-03-01T10:14:24;41.20;;;25.80;;
151;SDS011;68;48.792;9.164;2023-03-01T10:16:57;42.30;;;25.55;;
151;SDS011;68;48.792;9.164;2023-03-01T10:19:30;42.22;;;25.45;;
151;SDS011;68;48.792;9.164;2023-03-01T10:22:00;39.08;;;25.60;;
151;SDS011;68;48.792;9.164;2023-03-01T10:24:31;41.05;;;24.40;;
151;SDS011;68;48.792;9.164;2023-03-01T10:27:03;39.05;;;24.02;;
151;SDS011;68;48.792;9.164;2023-03-01T10:29:34;38.78;;;23.77;;
151;SDS011;68;48.792;9.164;2023-03-01T10:32:09;39.50;;;23.30;;
151;SDS011;68;48.792;9.164;2023-03-01T10:34:38;40.40;;;24.38;;
151;SDS011;68;48.792;9.164;2023-03-01T10:37:08;38.38;;;24.23;;
151;SDS011;68;48.792;9.164;2023-03-01T10:39:37;40.25;;;24.40;;
151;SDS011;68;48.792;9.164;2023-03-01T10:42:22;35.17;;;22.90;;
151;SDS011;68;48.792;9.164;2023-03-01T10:44:53;40.28;;;24.10;;
151;SDS011;68;48.792;9.164;2023-03-01T10:47:21;42.35;;;24.40;;
151;SDS011;68;48.792;9.164;2023-03-01T10:49:54;44.25;;;24.13;;
151;SDS011;68;48.792;9.164;2023-03-01T10:52:30;38.50;;;23.23;;
151;SDS011;68;48.792;9.164;2023-03-01T10:54:59;36.70;;;22.88;;
151;SDS011;68;48.792;9.164;2023-03-01T10:57:30;37.65;;;23.52;;
151;SDS011;68;48.792;9.164;2023-03-01T11:00:10;35.65;;;22.92;;
151;SDS011;68;48.792;9.164;2023-03-01T11:02:51;34.90;;;22.80;;
151;SDS011;68;48.792;9.164;2023-03-01T11:05:30;33.10;;;21.23;;
151;SDS011;68;48.792;9.164;2023-03-01T11:07:59;38.97;;;23.23;;
151;SDS011;68;48.792;9.164;2023-03-01T11:10:28;39.47;;;23.30;;
151;SDS011;68;48.792;9.164;2023-03-01T11:13:05;32.97;;;21.73;;
151;SDS011;68;48.792;9.164;2023-03-01T11:15:34;35.28;;;21.65;;
151;SDS011;68;48.792;9.164;2023-03-01T11:18:01;40.53;;;22.02;;
151;SDS011;68;48.792;9.164;2023-03-01T11:20:31;33.83;;;20.95;;
151;SDS011;68;48.792;9.164;2023-03-01T11:23:01;40.30;;;22.80;;
151;SDS011;68;48.792;9.164;2023-03-01T11:25:32;40.03;;;22.45;;
151;SDS011;68;48.792;9.164;2023-03-01T11:28:01;35.20;;;21.95;;
151;SDS011;68;48.792;9.164;2023-03-01T11:30:31;32.20;;;21.15;;
151;SDS011;68;48.792;9.164;2023-03-01T11:33:13;33.70;;;20.73;;
151;SDS011;68;48.792;9.164;2023-03-01T11:35:46;33.05;;;22.17;;
151;SDS011;68;48.792;9.164;2023-03-01T11:38:21;35.03;;;22.00;;
151;SDS011;68;48.792;9.164;2023-03-01T11:40:50;36.58;;;22.55;;
151;SDS011;68;48.792;9.164;2023-03-01T11:43:26;40.88;;;22.30;;
151;SDS011;68;48.792;9.164;2023-03-01T11:46:00;36.55;;;22.33;;
151;SDS011;68;48.792;9.164;2023-03-01T11:48:49;36.63;;;21.73;;
151;SDS011;68;48.792;9.164;2023-03-01T11:51:30;37.55;;;21.52;;
151;SDS011;68;48.792;9.164;2023-03-01T11:54:09;41.15;;;23.42;;
151;SDS011;68;48.792;9.164;2023-03-01T11:56:52;34.60;;;22.50;;
151;SDS011;68;48.792;9.164;2023-03-01T12:02:21;34.95;;;21.40;;
151;SDS011;68;48.792;9.164;2023-03-01T12:05:14;34.30;;;20.58;;
151;SDS011;68;48.792;9.164;2023-03-01T12:07:53;33.03;;;21.90;;
151;SDS011;68;48.792;9.164;2023-03-01T12:10:28;34.53;;;20.13;;
151;SDS011;68;48.792;9.164;2023-03-01T12:13:09;33.17;;;20.70;;
151;SDS011;68;48.792;9.164;2023-03-01T12:18:58;29.77;;;18.70;;
151;SDS011;68;48.792;9.164;2023-03-01T12:21:38;34.15;;;19.90;;
151;SDS011;68;48.792;9.164;2023-03-01T12:24:32;35.20;;;20.45;;
151;SDS011;68;48.792;9.164;2023-03-01T12:27:18;39.08;;;21.50;;
151;SDS011;68;48.792;9.164;2023-03-01T12:29:56;28.50;;;19.27;;
151;SDS011;68;48.792;9.164;2023-03-01T12:32:34;35.92;;;20.40;;
151;SDS011;68;48.792;9.164;2023-03-01T12:35:18;34.67;;;20.10;;
151;SDS011;68;48.792;9.164;2023-03-01T12:37:55;31.65;;;19.23;;
151;SDS011;68;48.792;9.164;2023-03-01T12:40:36;29.90;;;18.48;;
151;SDS011;68;48.792;9.164;2023-03-01T12:43:22;30.75;;;19.25;;
151;SDS011;68;48.792;9.164;2023-03-01T12:46:06;29.75;;;18.75;;
151;SDS011;68;48.792;9.164;2023-03-01T12:48:47;33.45;;;19.02;;
151;SDS011;68;48.792;9.164;2023-03-01T12:51:22;27.70;;;18.40;;
151;SDS011;68;48.792;9.164;2023-03-01T12:53:51;32.70;;;17.52;;
151;SDS011;68;48.792;9.164;2023-03-01T12:56:22;27.20;;;18.02;;
151;SDS011;68;48.792;9.164;2023-03-01T12:58:55;29.55;;;17.95;;
151;SDS011;68;48.792;9.164;2023-03-01T13:01:33;33.42;;;19.88;;
151;SDS011;68;48.792;9.164;2023-03-01T13:04:08;33.47;;;20.13;;
151;SDS011;68;48.792;9.164;2023-03-01T13:06:43;30.02;;;18.05;;
151;SDS011;68;48.792;9.164;2023-03-01T13:09:19;31.27;;;18.33;;
151;SDS011;68;48.792;9.164;2023-03-01T13:11:52;27.65;;;17.70;;
151;SDS011;68;48.792;9.164;2023-03-01T13:14:35;30.85;;;17.58;;
151;SDS011;68;48.792;9.164;2023-03-01T13:20:11;30.45;;;19.13;;
151;SDS011;68;48.792;9.164;2023-03-01T13:22:40;32.28;;;20.27;;
151;SDS011;68;48.792;9.164;2023-03-01T13:25:14;36.20;;;20.30;;
151;SDS011;68;48.792;9.164;2023-03-01T13:27:44;32.38;;;19.83;;
151;SDS011;68;48.792;9.164;2023-03-01T13:36:06;34.75;;;20.90;;
151;SDS011;68;48.792;9.164;2023-03-01T13:38:36;34.05;;;20.05;;
151;SDS011;68;48.792;9.164;2023-03-01T13:41:06;32.50;;;19.70;;
151;SDS011;68;48.792;9.164;2023-03-01T13:43:35;32.05;;;19.92;;
151;SDS011;68;48.792;9.164;2023-03-01T13:46:08;39.90;;;22.30;;
151;SDS011;68;48.792;9.164;2023-03-01T13:48:37;34.47;;;21.27;;
151;SDS011;68;48.792;9.164;2023-03-01T13:51:06;34.45;;;21.05;;
151;SDS011;68;48.792;9.164;2023-03-01T13:53:36;38.53;;;20.20;;
151;SDS011;68;48.792;9.164;2023-03-01T13:56:07;39.70;;;21.52;;
151;SDS011;68;48.792;9.164;2023-03-01T13:58:51;34.25;;;21.45;;
151;SDS011;68;48.792;9.164;2023-03-01T14:01:21;34.85;;;22.50;;
151;SDS011;68;48.792;9.164;2023-03-01T14:03:49;38.45;;;22.10;;
151;SDS011;68;48.792;9.164;2023-03-01T14:06:18;37.10;;;20.80;;
151;SDS011;68;48.792;9.164;2023-03-01T14:08:47;40.78;;;23.15;;
151;SDS011;68;48.792;9.164;2023-03-01T14:11:26;36.33;;;21.25;;
151;SDS011;68;48.792;9.164;2023-03-01T14:14:20;37.08;;;21.92;;
151;SDS011;68;48.792;9.164;2023-03-01T14:17:00;42.22;;;23.00;;
151;SDS011;68;48.792;9.164;2023-03-01T14:19:39;41.58;;;22.42;;
151;SDS011;68;48.792;9.164;2023-03-01T14:22:12;38.50;;;23.17;;
151;SDS011;68;48.792;9.164;2023-03-01T14:24:46;36.13;;;21.77;;
151;SDS011;68;48.792;9.164;2023-03-01T14:27:15;36.85;;;22.00;;
151;SDS011;68;48.792;9.164;2023-03-01T14:29:44;35.30;;;21.88;;
151;SDS011;68;48.792;9.164;2023-03-01T14:32:21;39.00;;;23.45;;
151;SDS011;68;48.792;9.164;2023-03-01T14:34:50;36.40;;;22.92;;
151;SDS011;68;48.792;9.164;2023-03-01T14:37:18;38.78;;;22.98;;
151;SDS011;68;48.792;9.164;2023-03-01T14:39:47;34.83;;;22.70;;
151;SDS011;68;48.792;9.164;2023-03-01T14:42:15;38.33;;;23.55;;
151;SDS011;68;48.792;9.164;2023-03-01T14:44:45;43.83;;;24.30;;
151;SDS011;68;48.792;9.164;2023-03-01T14:47:15;41.33;;;23.52;;
151;SDS011;68;48.792;9.164;2023-03-01T14:49:52;35.05;;;22.30;;
151;SDS011;68;48.792;9.164;2023-03-01T14:52:25;35.08;;;21.70;;
151;SDS011;68;48.792;9.164;2023-03-01T14:54:59;42.28;;;23.92;;
151;SDS011;68;48.792;9.164;2023-03-01T14:57:26;41.05;;;22.40;;
151;SDS011;68;48.792;9.164;2023-03-01T14:59:55;37.13;;;22.67;;
151;SDS011;68;48.792;9.164;2023-03-01T15:02:26;34.72;;;22.50;;
151;SDS011;68;48.792;9.164;2023-03-01T15:04:55;35.55;;;22.95;;
151;SDS011;68;48.792;9.164;2023-03-01T15:07:26;34.88;;;22.35;;
151;SDS011;68;48.792;9.164;2023-03-01T15:09:56;39.05;;;23.38;;
151;SDS011;68;48.792;9.164;2023-03-01T15:12:34;36.92;;;22.45;;
151;SDS011;68;48.792;9.164;2023-03-01T15:18:00;39.40;;;22.13;;
151;SDS011;68;48.792;9.164;2023-03-01T15:20:29;37.45;;;22.70;;
151;SDS011;68;48.792;9.164;2023-03-01T15:23:00;40.70;;;22.88;;
151;SDS011;68;48.792;9.164;2023-03-01T15:25:28;39.20;;;23.10;;
151;SDS011;68;48.792;9.164;2023-03-01T15:27:56;45.90;;;23.55;;
151;SDS011;68;48.792;9.164;2023-03-01T15:30:26;40.28;;;22.90;;
151;SDS011;68;48.792;9.164;2023-03-01T15:39:02;34.97;;;21.50;;
151;SDS011;68;48.792;9.164;2023-03-01T15:41:32;38.83;;;24.10;;
151;SDS011;68;48.792;9.164;2023-03-01T15:44:14;35.50;;;22.10;;
151;SDS011;68;48.792;9.164;2023-03-01T15:46:44;36.92;;;22.23;;
151;SDS011;68;48.792;9.164;2023-03-01T15:49:21;34.22;;;21.40;;
151;SDS011;68;48.792;9.164;2023-03-01T15:51:58;38.00;;;22.35;;
151;SDS011;68;48.792;9.164;2023-03-01T15:54:25;36.53;;;22.20;;
151;SDS011;68;48.792;9.164;2023-03-01T15:56:53;39.10;;;22.10;;
151;SDS011;68;48.792;9.164;2023-03-01T15:59:20;41.58;;;21.85;;
151;SDS011;68;48.792;9.164;2023-03-01T16:01:47;34.72;;;22.15;;
151;SDS011;68;48.792;9.164;2023-03-01T16:04:15;38.35;;;21.73;;
151;SDS011;68;48.792;9.164;2023-03-01T16:06:49;37.75;;;22.70;;
151;SDS011;68;48.792;9.164;2023-03-01T16:09:21;40.78;;;23.25;;
151;SDS011;68;48.792;9.164;2023-03-01T16:11:49;38.45;;;23.23;;
151;SDS011;68;48.792;9.164;2023-03-01T16:14:17;37.10;;;22.00;;
151;SDS011;68;48.792;9.164;2023-03-01T16:16:44;39.97;;;23.08;;